Time;durP1;ratioP1;P1;durP2;ratioP2;P2;SDS_P1;SDS_P2;PMS_P1;PMS_P2;Temp;Humidity;BMP_temperature;BMP_pressure;BME280_temperature;BME280_humidity;BME280_pressure;Samples;Min_cycle;Max_cycle;Signal;HPM_P1;HPM_P2
2022/03/01 00:00:30;;;;;;;0.30;0.30;;;;;;;;;;4130184;28;20054;-57
2022/03/01 00:02:31;;;;;;;0.30;0.20;;;;;;;;;;4129761;28;20085;-58
2022/03/01 00:04:32;;;;;;;0.30;0.20;;;;;;;;;;4129991;28;20054;-57
2022/03/01 00:06:33;;;;;;;0.30;0.20;;;;;;;;;;4130287;28;20130;-57
2022/03/01 00:08:34;;;;;;;0.28;0.20;;;;;;;;;;4144855;28;20053;-56
2022/03/01 00:10:36;;;;;;;0.60;0.20;;;;;;;;;;4130098;28;20474;-57
2022/03/01 00:12:37;;;;;;;0.43;0.20;;;;;;;;;;4128918;28;20053;-56
2022/03/01 00:14:38;;;;;;;0.47;0.30;;;;;;;;;;4130036;28;20330;-57
2022/03/01 00:16:40;;;;;;;0.25;0.25;;;;;;;;;;4129606;28;20058;-55
2022/03/01 00:18:41;;;;;;;0.30;0.30;;;;;;;;;;4130090;28;20061;-58
2022/03/01 00:20:42;;;;;;;0.30;0.20;;;;;;;;;;4129855;28;20073;-57
2022/03/01 00:22:43;;;;;;;0.43;0.20;;;;;;;;;;4129892;28;20104;-56
2022/03/01 00:24:44;;;;;;;0.63;0.20;;;;;;;;;;4129889;28;20201;-58
2022/03/01 00:26:45;;;;;;;0.85;0.28;;;;;;;;;;4127731;28;20105;-57
2022/03/01 00:28:46;;;;;;;0.20;0.20;;;;;;;;;;4129827;28;20058;-58
2022/03/01 00:30:47;;;;;;;0.22;0.20;;;;;;;;;;4130004;28;20058;-57
2022/03/01 00:32:49;;;;;;;0.20;0.13;;;;;;;;;;4129152;28;20407;-55
2022/03/01 00:34:50;;;;;;;0.52;0.30;;;;;;;;;;4144942;28;20347;-58
2022/03/01 00:36:51;;;;;;;1.45;0.68;;;;;;;;;;4128445;28;20116;-57
2022/03/01 00:38:52;;;;;;;1.83;0.30;;;;;;;;;;4129982;28;20053;-57
2022/03/01 00:40:54;;;;;;;0.43;0.30;;;;;;;;;;4129723;28;20657;-55
2022/03/01 00:42:55;;;;;;;0.50;0.32;;;;;;;;;;4144512;28;20437;-57
2022/03/01 00:44:56;;;;;;;0.73;0.30;;;;;;;;;;4129766;28;20120;-58
2022/03/01 00:46:57;;;;;;;0.30;0.20;;;;;;;;;;4144010;28;20166;-57
2022/03/01 00:48:58;;;;;;;0.35;0.20;;;;;;;;;;4129616;28;20438;-55
2022/03/01 00:50:59;;;;;;;0.73;0.20;;;;;;;;;;4128369;28;20157;-57
2022/03/01 00:53:01;;;;;;;0.47;0.20;;;;;;;;;;4129804;28;20065;-57
2022/03/01 00:55:02;;;;;;;0.35;0.20;;;;;;;;;;4129713;28;20069;-57
2022/03/01 00:57:04;;;;;;;0.20;0.20;;;;;;;;;;4129449;28;20065;-56
2022/03/01 00:59:05;;;;;;;0.15;0.10;;;;;;;;;;4129457;28;20100;-58
2022/03/01 01:01:06;;;;;;;0.28;0.20;;;;;;;;;;4129533;28;20104;-58
2022/03/01 01:03:07;;;;;;;0.45;0.25;;;;;;;;;;4129034;28;20120;-58
2022/03/01 01:05:08;;;;;;;0.30;0.17;;;;;;;;;;4129443;28;20402;-58
2022/03/01 01:07:09;;;;;;;0.50;0.20;;;;;;;;;;4129469;28;20126;-57
2022/03/01 01:09:13;;;;;;;0.60;0.20;;;;;;;;;;4129351;28;20054;-57
2022/03/01 01:11:14;;;;;;;0.20;0.20;;;;;;;;;;4129449;28;20314;-58
2022/03/01 01:13:16;;;;;;;0.40;0.20;;;;;;;;;;4129378;28;20058;-58
2022/03/01 01:15:19;;;;;;;0.47;0.30;;;;;;;;;;4129411;28;20054;-57
2022/03/01 01:17:20;;;;;;;0.20;0.13;;;;;;;;;;4129048;28;20447;-56
2022/03/01 01:19:21;;;;;;;0.28;0.22;;;;;;;;;;4129172;28;20104;-56
2022/03/01 01:21:23;;;;;;;0.20;0.20;;;;;;;;;;4129490;28;20112;-58
2022/03/01 01:23:24;;;;;;;0.20;0.20;;;;;;;;;;4129471;28;20388;-57
2022/03/01 01:25:25;;;;;;;0.20;0.20;;;;;;;;;;4129407;28;20057;-57
2022/03/01 01:27:27;;;;;;;0.43;0.22;;;;;;;;;;4129086;28;20341;-58
2022/03/01 01:29:28;;;;;;;0.40;0.30;;;;;;;;;;4128249;28;20058;-58
2022/03/01 01:31:29;;;;;;;0.40;0.30;;;;;;;;;;4129379;28;20061;-56
2022/03/01 01:33:30;;;;;;;0.22;0.20;;;;;;;;;;4129061;28;20066;-56
2022/03/01 01:35:33;;;;;;;0.22;0.20;;;;;;;;;;4129323;28;20597;-56
2022/03/01 01:37:34;;;;;;;1.27;0.30;;;;;;;;;;4129833;28;20058;-58
2022/03/01 01:39:35;;;;;;;0.30;0.10;;;;;;;;;;4132218;28;20410;-57
2022/03/01 01:41:36;;;;;;;0.35;0.20;;;;;;;;;;4132374;28;20182;-56
2022/03/01 01:43:37;;;;;;;0.30;0.30;;;;;;;;;;4132157;28;20058;-57
2022/03/01 01:45:39;;;;;;;0.30;0.20;;;;;;;;;;4132332;28;20054;-58
2022/03/01 01:47:40;;;;;;;0.47;0.13;;;;;;;;;;4131762;28;20062;-55
2022/03/01 01:49:42;;;;;;;0.20;0.20;;;;;;;;;;4132116;28;20117;-55
2022/03/01 01:51:43;;;;;;;0.50;0.20;;;;;;;;;;4132311;28;20062;-57
2022/03/01 01:53:44;;;;;;;0.28;0.28;;;;;;;;;;4132021;28;20431;-57
2022/03/01 01:55:45;;;;;;;0.30;0.20;;;;;;;;;;4132168;28;20073;-58
2022/03/01 01:57:47;;;;;;;1.75;0.20;;;;;;;;;;4131671;28;20537;-58
2022/03/01 01:59:50;;;;;;;0.35;0.20;;;;;;;;;;4132062;28;20395;-57
2022/03/01 02:01:51;;;;;;;0.13;0.10;;;;;;;;;;4146499;28;20058;-55
2022/03/01 02:03:52;;;;;;;0.20;0.20;;;;;;;;;;4130903;28;20058;-57
2022/03/01 02:05:53;;;;;;;0.50;0.10;;;;;;;;;;4131898;28;20116;-57
2022/03/01 02:07:55;;;;;;;0.20;0.20;;;;;;;;;;4131944;28;20054;-58
2022/03/01 02:09:56;;;;;;;0.40;0.28;;;;;;;;;;4131860;28;20191;-56
2022/03/01 02:11:57;;;;;;;1.08;0.30;;;;;;;;;;4131914;28;20086;-57
2022/03/01 02:13:58;;;;;;;0.20;0.20;;;;;;;;;;4146216;28;20107;-58
2022/03/01 02:16:00;;;;;;;0.20;0.20;;;;;;;;;;4131985;28;20109;-57
2022/03/01 02:18:01;;;;;;;0.20;0.20;;;;;;;;;;4131209;28;20058;-56
2022/03/01 02:20:06;;;;;;;1.20;0.40;;;;;;;;;;4114257;28;20054;-57
2022/03/01 02:22:07;;;;;;;0.20;0.20;;;;;;;;;;4131596;28;20124;-57
2022/03/01 02:24:08;;;;;;;0.40;0.20;;;;;;;;;;4131670;28;20391;-58
2022/03/01 02:26:10;;;;;;;0.93;0.38;;;;;;;;;;4131461;28;20062;-58
2022/03/01 02:28:11;;;;;;;0.30;0.30;;;;;;;;;;4131280;28;20120;-58
2022/03/01 02:30:12;;;;;;;0.47;0.30;;;;;;;;;;4131451;28;20117;-58
2022/03/01 02:32:13;;;;;;;0.57;0.20;;;;;;;;;;4130990;28;20105;-55
2022/03/01 02:34:14;;;;;;;0.50;0.20;;;;;;;;;;4131437;28;20113;-58
2022/03/01 02:36:15;;;;;;;0.20;0.20;;;;;;;;;;4131361;28;20482;-58
2022/03/01 02:38:16;;;;;;;0.45;0.25;;;;;;;;;;4131202;28;20145;-56
2022/03/01 02:40:18;;;;;;;0.20;0.15;;;;;;;;;;4131234;28;20065;-58
2022/03/01 02:42:22;;;;;;;0.43;0.20;;;;;;;;;;4113876;28;20078;-57
2022/03/01 02:44:23;;;;;;;0.25;0.17;;;;;;;;;;4131310;28;20124;-57
2022/03/01 02:46:25;;;;;;;0.30;0.20;;;;;;;;;;4131015;28;20498;-57
2022/03/01 02:48:26;;;;;;;0.30;0.20;;;;;;;;;;4129382;28;20196;-55
2022/03/01 02:50:27;;;;;;;0.70;0.40;;;;;;;;;;4113033;28;20054;-56
2022/03/01 02:52:28;;;;;;;0.50;0.30;;;;;;;;;;4131037;28;20104;-58
2022/03/01 02:54:29;;;;;;;0.30;0.30;;;;;;;;;;4131244;28;20454;-57
2022/03/01 02:56:30;;;;;;;0.10;0.10;;;;;;;;;;4131394;28;20058;-58
2022/03/01 02:58:31;;;;;;;0.32;0.22;;;;;;;;;;4131095;28;20116;-57
2022/03/01 03:00:32;;;;;;;0.30;0.30;;;;;;;;;;4130998;28;20104;-57
2022/03/01 03:02:33;;;;;;;0.43;0.20;;;;;;;;;;4130419;28;20362;-55
2022/03/01 03:04:35;;;;;;;0.40;0.20;;;;;;;;;;4131282;28;20054;-57
2022/03/01 03:06:36;;;;;;;0.20;0.20;;;;;;;;;;4133050;28;20057;-57
2022/03/01 03:08:37;;;;;;;0.28;0.20;;;;;;;;;;4130926;28;20109;-57
2022/03/01 03:10:38;;;;;;;0.30;0.20;;;;;;;;;;4131176;28;20112;-58
2022/03/01 03:12:40;;;;;;;0.40;0.30;;;;;;;;;;4130870;28;20545;-56
2022/03/01 03:14:41;;;;;;;0.20;0.20;;;;;;;;;;4130904;28;20058;-58
2022/03/01 03:16:42;;;;;;;0.52;0.20;;;;;;;;;;4128910;28;20312;-55
2022/03/01 03:18:43;;;;;;;0.45;0.20;;;;;;;;;;4129629;28;20047;-58
2022/03/01 03:20:44;;;;;;;0.43;0.30;;;;;;;;;;4130758;28;20058;-56
2022/03/01 03:22:45;;;;;;;0.20;0.20;;;;;;;;;;4130819;28;20065;-56
2022/03/01 03:24:47;;;;;;;0.20;0.20;;;;;;;;;;4129456;28;20066;-57
2022/03/01 03:26:48;;;;;;;0.20;0.20;;;;;;;;;;4130467;28;20050;-58
2022/03/01 03:28:49;;;;;;;0.30;0.20;;;;;;;;;;4129230;28;20406;-57
2022/03/01 03:30:50;;;;;;;0.73;0.35;;;;;;;;;;4130627;28;20157;-54
2022/03/01 03:32:51;;;;;;;0.57;0.25;;;;;;;;;;4130243;28;20117;-58
2022/03/01 03:34:52;;;;;;;0.32;0.30;;;;;;;;;;4145355;28;20122;-57
2022/03/01 03:36:53;;;;;;;0.30;0.20;;;;;;;;;;4130451;28;20672;-56
2022/03/01 03:38:54;;;;;;;0.75;0.20;;;;;;;;;;4130420;28;20058;-55
2022/03/01 03:40:55;;;;;;;0.20;0.20;;;;;;;;;;4145440;28;20054;-58
2022/03/01 03:42:56;;;;;;;0.30;0.30;;;;;;;;;;4130372;28;20124;-58
2022/03/01 03:44:57;;;;;;;0.47;0.25;;;;;;;;;;4145482;28;20086;-57
2022/03/01 03:46:59;;;;;;;0.38;0.28;;;;;;;;;;4129933;28;20070;-56
2022/03/01 03:49:00;;;;;;;0.30;0.25;;;;;;;;;;4130241;28;20054;-57
2022/03/01 03:51:01;;;;;;;0.20;0.17;;;;;;;;;;4130265;28;20121;-57
2022/03/01 03:53:02;;;;;;;1.63;0.30;;;;;;;;;;4130176;28;20112;-58
2022/03/01 03:55:05;;;;;;;0.57;0.20;;;;;;;;;;4130243;28;20355;-56
2022/03/01 03:57:08;;;;;;;0.60;0.30;;;;;;;;;;4127004;28;20062;-57
2022/03/01 03:59:09;;;;;;;0.70;0.30;;;;;;;;;;4113980;28;20146;-57
2022/03/01 04:01:10;;;;;;;0.20;0.20;;;;;;;;;;4114358;28;20089;-57
2022/03/01 04:03:12;;;;;;;0.20;0.20;;;;;;;;;;4113407;28;20125;-57
2022/03/01 04:05:14;;;;;;;0.20;0.20;;;;;;;;;;4114239;28;20055;-55
2022/03/01 04:07:15;;;;;;;0.25;0.10;;;;;;;;;;4113894;28;20132;-57
2022/03/01 04:09:16;;;;;;;0.30;0.20;;;;;;;;;;4096953;29;20106;-58
2022/03/01 04:11:17;;;;;;;0.30;0.20;;;;;;;;;;4113849;28;20050;-57
2022/03/01 04:13:18;;;;;;;0.10;0.10;;;;;;;;;;4113921;28;20058;-57
2022/03/01 04:15:19;;;;;;;0.30;0.20;;;;;;;;;;4113677;28;20058;-56
2022/03/01 04:17:21;;;;;;;0.13;0.10;;;;;;;;;;4113647;28;20055;-56
2022/03/01 04:19:23;;;;;;;0.35;0.20;;;;;;;;;;4113993;28;20055;-55
2022/03/01 04:21:24;;;;;;;0.32;0.17;;;;;;;;;;4114029;28;20059;-57
2022/03/01 04:23:25;;;;;;;0.20;0.20;;;;;;;;;;4096800;29;20063;-57
2022/03/01 04:25:26;;;;;;;0.35;0.20;;;;;;;;;;4113815;28;20109;-57
2022/03/01 04:27:28;;;;;;;0.40;0.20;;;;;;;;;;4113630;28;20113;-58
2022/03/01 04:29:29;;;;;;;0.30;0.20;;;;;;;;;;4113802;28;20117;-57
2022/03/01 04:31:30;;;;;;;0.85;0.40;;;;;;;;;;4113745;28;20518;-57
2022/03/01 04:33:31;;;;;;;0.52;0.30;;;;;;;;;;4138111;28;20108;-56
2022/03/01 04:35:33;;;;;;;0.50;0.32;;;;;;;;;;4146140;28;20100;-57
2022/03/01 04:37:36;;;;;;;0.30;0.30;;;;;;;;;;4144741;28;20049;-58
2022/03/01 04:39:37;;;;;;;1.00;0.30;;;;;;;;;;4145995;28;20097;-57
2022/03/01 04:41:38;;;;;;;0.63;0.20;;;;;;;;;;4144734;28;20120;-57
2022/03/01 04:43:39;;;;;;;0.80;0.38;;;;;;;;;;4145936;28;20057;-58
2022/03/01 04:45:40;;;;;;;0.10;0.10;;;;;;;;;;4128568;28;20108;-57
2022/03/01 04:47:41;;;;;;;0.45;0.17;;;;;;;;;;4145645;28;20058;-57
2022/03/01 04:49:43;;;;;;;1.20;0.20;;;;;;;;;;4145923;28;20050;-56
2022/03/01 04:51:44;;;;;;;0.50;0.20;;;;;;;;;;4146031;28;20379;-57
2022/03/01 04:53:45;;;;;;;0.43;0.30;;;;;;;;;;4145849;28;20115;-57
2022/03/01 04:55:46;;;;;;;0.70;0.20;;;;;;;;;;4145865;28;20061;-57
2022/03/01 04:57:47;;;;;;;0.38;0.30;;;;;;;;;;4145605;28;20433;-57
2022/03/01 04:59:48;;;;;;;0.57;0.22;;;;;;;;;;4145813;28;20394;-56
2022/03/01 05:01:49;;;;;;;0.20;0.17;;;;;;;;;;4145647;28;20069;-57
2022/03/01 05:03:51;;;;;;;0.47;0.28;;;;;;;;;;4144307;28;20054;-58
2022/03/01 05:05:52;;;;;;;0.40;0.25;;;;;;;;;;4145807;28;20054;-56
2022/03/01 05:07:53;;;;;;;0.20;0.20;;;;;;;;;;4131657;28;20112;-57
2022/03/01 05:09:54;;;;;;;0.32;0.20;;;;;;;;;;4128229;28;20121;-56
2022/03/01 05:11:55;;;;;;;0.20;0.10;;;;;;;;;;4129400;28;20457;-54
2022/03/01 05:13:57;;;;;;;0.30;0.20;;;;;;;;;;4132248;28;20109;-54
2022/03/01 05:15:58;;;;;;;0.40;0.28;;;;;;;;;;4132588;28;20121;-57
2022/03/01 05:17:59;;;;;;;0.10;0.10;;;;;;;;;;4131996;28;20421;-58
2022/03/01 05:20:01;;;;;;;0.35;0.20;;;;;;;;;;4147366;28;20599;-56
2022/03/01 05:22:02;;;;;;;0.20;0.20;;;;;;;;;;4131251;28;20062;-58
2022/03/01 05:24:04;;;;;;;0.63;0.20;;;;;;;;;;4131224;28;20509;-57
2022/03/01 05:26:05;;;;;;;0.90;0.40;;;;;;;;;;4132363;28;20113;-58
2022/03/01 05:28:06;;;;;;;0.43;0.30;;;;;;;;;;4147522;28;20054;-57
2022/03/01 05:30:10;;;;;;;0.30;0.20;;;;;;;;;;4148595;28;20457;-58
2022/03/01 05:32:11;;;;;;;0.10;0.10;;;;;;;;;;4146850;28;20437;-56
2022/03/01 05:34:12;;;;;;;0.65;0.30;;;;;;;;;;4148635;28;20076;-56
2022/03/01 05:36:15;;;;;;;0.38;0.30;;;;;;;;;;4147231;28;20137;-58
2022/03/01 05:38:16;;;;;;;0.28;0.20;;;;;;;;;;4148139;28;20073;-55
2022/03/01 05:40:19;;;;;;;0.50;0.40;;;;;;;;;;4148134;28;20549;-57
2022/03/01 05:42:20;;;;;;;0.20;0.20;;;;;;;;;;4148314;28;20111;-57
2022/03/01 05:44:21;;;;;;;0.50;0.40;;;;;;;;;;4148335;28;20536;-58
2022/03/01 05:46:22;;;;;;;0.95;0.20;;;;;;;;;;4130909;28;20061;-56
2022/03/01 05:48:23;;;;;;;1.05;0.22;;;;;;;;;;4148057;28;20459;-58
2022/03/01 05:50:26;;;;;;;0.40;0.20;;;;;;;;;;4148338;28;20050;-58
2022/03/01 05:52:27;;;;;;;0.55;0.40;;;;;;;;;;4148121;28;20085;-58
2022/03/01 05:54:28;;;;;;;0.40;0.20;;;;;;;;;;4148364;28;20057;-58
2022/03/01 05:56:30;;;;;;;2.00;0.50;;;;;;;;;;4148189;28;20054;-57
2022/03/01 05:58:31;;;;;;;0.45;0.20;;;;;;;;;;4134811;28;20062;-57
2022/03/01 06:00:32;;;;;;;0.32;0.20;;;;;;;;;;4115905;28;20466;-57
2022/03/01 06:02:34;;;;;;;0.47;0.30;;;;;;;;;;4128043;28;20430;-56
2022/03/01 06:04:35;;;;;;;0.30;0.20;;;;;;;;;;4129998;28;20061;-58
2022/03/01 06:06:36;;;;;;;0.52;0.30;;;;;;;;;;4130011;28;20069;-54
2022/03/01 06:08:37;;;;;;;0.30;0.20;;;;;;;;;;4129844;28;20058;-56
2022/03/01 06:10:38;;;;;;;0.70;0.30;;;;;;;;;;4129970;28;20058;-57
2022/03/01 06:12:39;;;;;;;0.70;0.25;;;;;;;;;;4129915;28;20116;-58
2022/03/01 06:14:40;;;;;;;0.45;0.30;;;;;;;;;;4130071;28;20113;-58
2022/03/01 06:16:41;;;;;;;0.80;0.45;;;;;;;;;;4127955;28;20627;-57
2022/03/01 06:18:42;;;;;;;1.48;0.45;;;;;;;;;;4129755;28;20062;-58
2022/03/01 06:20:44;;;;;;;1.13;0.50;;;;;;;;;;4128515;28;20066;-58
2022/03/01 06:22:45;;;;;;;1.42;0.60;;;;;;;;;;4112300;28;20062;-56
2022/03/01 06:24:47;;;;;;;1.35;0.73;;;;;;;;;;4128187;28;20136;-58
2022/03/01 06:26:48;;;;;;;1.35;0.60;;;;;;;;;;4124448;28;20074;-58
2022/03/01 06:28:52;;;;;;;0.63;0.43;;;;;;;;;;4096379;28;20063;-58
2022/03/01 06:30:53;;;;;;;1.48;0.60;;;;;;;;;;4096474;29;20059;-57
2022/03/01 06:32:54;;;;;;;0.32;0.30;;;;;;;;;;4095738;29;20059;-58
2022/03/01 06:34:55;;;;;;;0.88;0.50;;;;;;;;;;4113379;28;20109;-57
2022/03/01 06:36:57;;;;;;;1.55;0.50;;;;;;;;;;4112994;28;20113;-58
2022/03/01 06:38:58;;;;;;;0.60;0.60;;;;;;;;;;4113118;28;20066;-57
2022/03/01 06:40:59;;;;;;;0.73;0.40;;;;;;;;;;4113396;28;20066;-57
2022/03/01 06:43:00;;;;;;;0.73;0.40;;;;;;;;;;4113063;28;20485;-57
2022/03/01 06:45:03;;;;;;;0.60;0.43;;;;;;;;;;4113091;28;20058;-58
2022/03/01 06:47:04;;;;;;;1.05;0.63;;;;;;;;;;4112641;28;20067;-55
2022/03/01 06:49:06;;;;;;;0.47;0.45;;;;;;;;;;4111833;28;20055;-54
2022/03/01 06:51:07;;;;;;;1.88;0.80;;;;;;;;;;4113375;28;20106;-56
2022/03/01 06:53:09;;;;;;;0.45;0.35;;;;;;;;;;4094447;29;20376;-55
2022/03/01 06:55:10;;;;;;;1.17;0.57;;;;;;;;;;4103254;28;20089;-57
2022/03/01 06:57:11;;;;;;;1.58;0.55;;;;;;;;;;4112159;28;20059;-59
2022/03/01 06:59:13;;;;;;;0.93;0.70;;;;;;;;;;4112458;28;20055;-57
2022/03/01 07:01:14;;;;;;;0.80;0.40;;;;;;;;;;4092147;28;20432;-55
2022/03/01 07:03:16;;;;;;;0.98;0.80;;;;;;;;;;4106862;28;20578;-57
2022/03/01 07:05:17;;;;;;;0.82;0.57;;;;;;;;;;4112555;28;20499;-53
2022/03/01 07:07:18;;;;;;;2.22;0.60;;;;;;;;;;4071353;29;20063;-56
2022/03/01 07:09:21;;;;;;;1.17;0.60;;;;;;;;;;4103238;28;20058;-56
2022/03/01 07:11:22;;;;;;;0.88;0.60;;;;;;;;;;4112823;28;20066;-54
2022/03/01 07:13:23;;;;;;;1.33;0.80;;;;;;;;;;4095405;28;20051;-56
2022/03/01 07:15:24;;;;;;;1.65;0.80;;;;;;;;;;4114677;28;20124;-57
2022/03/01 07:17:25;;;;;;;0.88;0.55;;;;;;;;;;4110952;28;20065;-54
2022/03/01 07:19:27;;;;;;;1.92;0.57;;;;;;;;;;4111400;28;21278;-55
2022/03/01 07:21:28;;;;;;;2.00;0.70;;;;;;;;;;4092622;28;20114;-53
2022/03/01 07:23:29;;;;;;;1.08;0.70;;;;;;;;;;4108386;28;20067;-57
2022/03/01 07:25:30;;;;;;;1.40;0.90;;;;;;;;;;4107144;28;20093;-55
2022/03/01 07:27:32;;;;;;;1.50;0.65;;;;;;;;;;4116257;28;20228;-56
2022/03/01 07:29:33;;;;;;;1.77;0.90;;;;;;;;;;4115410;28;20050;-57
2022/03/01 07:31:34;;;;;;;1.25;0.70;;;;;;;;;;4104961;28;20062;-55
2022/03/01 07:33:38;;;;;;;1.25;0.82;;;;;;;;;;4123573;28;20517;-58
2022/03/01 07:35:39;;;;;;;3.85;0.70;;;;;;;;;;4127938;28;21331;-58
2022/03/01 07:37:40;;;;;;;1.02;0.60;;;;;;;;;;4127607;28;20152;-56
2022/03/01 07:39:42;;;;;;;0.95;0.70;;;;;;;;;;4105025;28;20070;-58
2022/03/01 07:41:43;;;;;;;1.67;1.10;;;;;;;;;;4127601;28;20054;-59
2022/03/01 07:43:46;;;;;;;1.35;1.00;;;;;;;;;;4112551;28;20062;-58
2022/03/01 07:45:47;;;;;;;1.65;1.25;;;;;;;;;;4123471;28;20058;-57
2022/03/01 07:47:49;;;;;;;6.28;1.13;;;;;;;;;;4124509;28;20062;-56
2022/03/01 07:49:50;;;;;;;2.10;0.95;;;;;;;;;;4115143;28;20062;-58
2022/03/01 07:51:52;;;;;;;2.17;0.90;;;;;;;;;;4123668;28;20397;-57
2022/03/01 07:53:53;;;;;;;3.97;1.15;;;;;;;;;;4126504;28;20054;-58
2022/03/01 07:55:54;;;;;;;1.58;1.08;;;;;;;;;;4112896;28;20387;-59
2022/03/01 07:57:55;;;;;;;1.52;0.77;;;;;;;;;;4116237;28;20106;-59
2022/03/01 07:59:56;;;;;;;2.03;0.95;;;;;;;;;;4111763;28;20046;-57
2022/03/01 08:01:57;;;;;;;3.28;1.13;;;;;;;;;;4118834;28;20058;-55
2022/03/01 08:03:58;;;;;;;3.97;1.00;;;;;;;;;;4125090;28;20085;-57
2022/03/01 08:05:59;;;;;;;2.95;1.13;;;;;;;;;;4123482;28;20063;-56
2022/03/01 08:08:01;;;;;;;1.70;0.80;;;;;;;;;;4122892;28;20568;-56
2022/03/01 08:10:04;;;;;;;1.17;0.80;;;;;;;;;;4122147;28;20061;-57
2022/03/01 08:12:06;;;;;;;1.23;0.93;;;;;;;;;;4123218;28;20058;-54
2022/03/01 08:14:07;;;;;;;1.23;1.08;;;;;;;;;;4112401;28;20058;-53
2022/03/01 08:16:09;;;;;;;2.88;1.02;;;;;;;;;;4119082;28;20054;-58
2022/03/01 08:18:10;;;;;;;3.28;0.90;;;;;;;;;;4127218;28;20131;-53
2022/03/01 08:20:11;;;;;;;1.40;1.00;;;;;;;;;;4117254;28;20121;-58
2022/03/01 08:22:12;;;;;;;2.58;1.25;;;;;;;;;;4115817;28;20058;-57
2022/03/01 08:24:14;;;;;;;1.30;0.90;;;;;;;;;;4097557;28;20063;-55
2022/03/01 08:26:15;;;;;;;3.40;1.10;;;;;;;;;;4122789;28;20117;-57
2022/03/01 08:28:16;;;;;;;3.00;0.95;;;;;;;;;;4124767;28;20050;-56
2022/03/01 08:30:17;;;;;;;1.67;0.90;;;;;;;;;;4121923;28;20565;-53
2022/03/01 08:32:18;;;;;;;1.40;1.00;;;;;;;;;;4117648;28;20112;-57
2022/03/01 08:34:19;;;;;;;3.15;1.20;;;;;;;;;;4113332;28;20245;-57
2022/03/01 08:36:21;;;;;;;1.85;1.20;;;;;;;;;;4114670;28;20077;-57
2022/03/01 08:38:22;;;;;;;3.47;1.50;;;;;;;;;;4117464;28;20053;-56
2022/03/01 08:40:24;;;;;;;1.38;1.00;;;;;;;;;;4117737;28;20054;-57
2022/03/01 08:42:25;;;;;;;3.95;1.15;;;;;;;;;;4117774;28;20077;-56
2022/03/01 08:44:26;;;;;;;1.20;0.98;;;;;;;;;;4121929;28;20066;-56
2022/03/01 08:46:27;;;;;;;3.50;1.25;;;;;;;;;;4119048;28;20418;-56
2022/03/01 08:48:28;;;;;;;4.40;1.50;;;;;;;;;;4124987;28;20685;-58
2022/03/01 08:50:30;;;;;;;1.98;1.08;;;;;;;;;;4122578;28;20055;-55
2022/03/01 08:52:31;;;;;;;2.83;1.08;;;;;;;;;;4118496;28;20069;-56
2022/03/01 08:54:32;;;;;;;1.83;1.00;;;;;;;;;;4112802;28;20062;-56
2022/03/01 08:56:33;;;;;;;3.72;1.10;;;;;;;;;;4115005;28;20046;-57
2022/03/01 08:58:34;;;;;;;2.42;1.10;;;;;;;;;;4118904;28;20526;-53
2022/03/01 09:00:36;;;;;;;2.92;1.10;;;;;;;;;;4125980;28;20058;-57
2022/03/01 09:02:37;;;;;;;1.63;1.10;;;;;;;;;;4105655;28;20059;-55
2022/03/01 09:04:38;;;;;;;2.42;1.23;;;;;;;;;;4122806;28;20069;-56
2022/03/01 09:06:39;;;;;;;1.10;0.95;;;;;;;;;;4126591;28;20407;-55
2022/03/01 09:08:40;;;;;;;1.45;1.02;;;;;;;;;;4126770;28;20091;-55
2022/03/01 09:10:42;;;;;;;1.92;0.90;;;;;;;;;;4124421;28;20066;-58
2022/03/01 09:12:43;;;;;;;1.70;1.00;;;;;;;;;;4104612;28;20102;-58
2022/03/01 09:14:44;;;;;;;2.13;1.40;;;;;;;;;;4123911;28;20144;-57
2022/03/01 09:16:45;;;;;;;2.15;1.30;;;;;;;;;;4111013;28;20138;-57
2022/03/01 09:18:46;;;;;;;1.50;0.85;;;;;;;;;;4112335;28;20059;-56
2022/03/01 09:20:47;;;;;;;2.17;1.30;;;;;;;;;;4127421;28;20081;-57
2022/03/01 09:22:48;;;;;;;1.73;1.00;;;;;;;;;;4121920;28;20062;-57
2022/03/01 09:24:50;;;;;;;1.77;1.30;;;;;;;;;;4137538;28;20066;-54
2022/03/01 09:26:51;;;;;;;2.88;1.20;;;;;;;;;;4120128;28;20063;-54
2022/03/01 09:28:52;;;;;;;2.72;1.38;;;;;;;;;;4127342;28;20133;-55
2022/03/01 09:30:53;;;;;;;2.15;1.20;;;;;;;;;;4130182;28;20080;-56
2022/03/01 09:32:54;;;;;;;1.85;0.98;;;;;;;;;;4120078;28;20058;-57
2022/03/01 09:34:56;;;;;;;3.00;1.13;;;;;;;;;;4128300;28;20545;-55
2022/03/01 09:36:57;;;;;;;3.33;1.27;;;;;;;;;;4122984;28;20431;-57
2022/03/01 09:38:58;;;;;;;1.00;0.80;;;;;;;;;;4112196;28;20122;-52
2022/03/01 09:40:59;;;;;;;1.85;1.10;;;;;;;;;;4123074;28;20399;-57
2022/03/01 09:43:01;;;;;;;1.60;1.15;;;;;;;;;;4133474;28;20565;-55
2022/03/01 09:45:02;;;;;;;2.53;0.98;;;;;;;;;;4124876;28;20063;-56
2022/03/01 09:47:03;;;;;;;1.83;1.00;;;;;;;;;;4122394;28;20059;-56
2022/03/01 09:49:06;;;;;;;3.75;1.23;;;;;;;;;;4123433;28;20046;-57
2022/03/01 09:51:08;;;;;;;1.85;1.25;;;;;;;;;;4126937;28;20058;-56
2022/03/01 09:53:09;;;;;;;1.75;1.20;;;;;;;;;;4132015;28;20490;-57
2022/03/01 09:55:10;;;;;;;1.98;1.02;;;;;;;;;;4109848;28;20494;-56
2022/03/01 09:57:15;;;;;;;2.55;0.93;;;;;;;;;;4114473;28;20100;-57
2022/03/01 09:59:16;;;;;;;1.20;0.85;;;;;;;;;;4124186;28;20537;-56
2022/03/01 10:01:18;;;;;;;2.22;1.30;;;;;;;;;;4107575;28;20118;-57
2022/03/01 10:03:20;;;;;;;2.97;1.20;;;;;;;;;;4113513;28;20054;-57
2022/03/01 10:05:37;;;;;;;1.20;1.00;;;;;;;;;;4117199;28;20051;-56
2022/03/01 10:07:44;;;;;;;2.05;1.20;;;;;;;;;;4133049;28;20109;-54
2022/03/01 10:09:45;;;;;;;1.70;1.00;;;;;;;;;;4129755;28;20046;-55
2022/03/01 10:11:48;;;;;;;2.22;1.23;;;;;;;;;;4110789;28;20054;-54
2022/03/01 10:13:57;;;;;;;1.70;1.13;;;;;;;;;;4130752;28;20069;-57
2022/03/01 10:16:05;;;;;;;2.83;1.30;;;;;;;;;;4125345;28;20050;-57
2022/03/01 10:18:14;;;;;;;2.42;1.30;;;;;;;;;;4127109;28;20058;-58
2022/03/01 10:20:18;;;;;;;1.70;1.15;;;;;;;;;;4123727;28;20394;-56
2022/03/01 10:22:20;;;;;;;2.17;1.00;;;;;;;;;;4129880;28;20128;-56
2022/03/01 10:24:22;;;;;;;1.83;1.00;;;;;;;;;;4128991;28;20057;-57
2022/03/01 10:26:24;;;;;;;1.92;1.10;;;;;;;;;;4128137;28;20109;-58
2022/03/01 10:28:36;;;;;;;1.77;0.90;;;;;;;;;;4130772;28;20081;-57
2022/03/01 10:30:38;;;;;;;1.52;0.80;;;;;;;;;;4123527;28;20055;-58
2022/03/01 10:32:40;;;;;;;1.60;0.98;;;;;;;;;;4129436;28;20498;-57
2022/03/01 10:34:55;;;;;;;1.33;0.82;;;;;;;;;;4120619;28;20054;-57
2022/03/01 10:36:56;;;;;;;1.20;0.93;;;;;;;;;;4130164;28;20050;-57
2022/03/01 10:39:12;;;;;;;2.72;1.20;;;;;;;;;;4121751;28;20112;-58
2022/03/01 10:41:23;;;;;;;2.55;1.00;;;;;;;;;;4109196;28;20063;-56
2022/03/01 10:43:25;;;;;;;2.13;1.00;;;;;;;;;;4111584;28;20063;-56
2022/03/01 10:45:47;;;;;;;1.15;0.90;;;;;;;;;;4119899;28;20149;-56
2022/03/01 10:47:53;;;;;;;1.55;1.00;;;;;;;;;;4127293;28;20054;-57
2022/03/01 10:50:11;;;;;;;1.67;0.88;;;;;;;;;;4105688;28;20061;-59
2022/03/01 10:52:13;;;;;;;1.00;0.90;;;;;;;;;;4124509;28;20071;-55
2022/03/01 10:54:29;;;;;;;1.52;1.00;;;;;;;;;;4136116;28;20119;-57
2022/03/01 10:56:36;;;;;;;1.75;1.20;;;;;;;;;;4130094;28;20557;-56
2022/03/01 10:58:38;;;;;;;1.70;1.00;;;;;;;;;;4128545;28;20575;-59
2022/03/01 11:00:40;;;;;;;1.58;0.90;;;;;;;;;;4111027;28;20069;-57
2022/03/01 11:02:41;;;;;;;2.00;0.90;;;;;;;;;;4126043;28;20062;-57
2022/03/01 11:04:42;;;;;;;1.25;0.85;;;;;;;;;;4125199;28;20112;-56
2022/03/01 11:06:46;;;;;;;1.92;1.08;;;;;;;;;;4113139;28;20055;-56
2022/03/01 11:08:49;;;;;;;1.30;1.00;;;;;;;;;;4106639;28;20090;-58
2022/03/01 11:10:52;;;;;;;1.60;0.90;;;;;;;;;;4119529;28;20066;-57
2022/03/01 11:12:53;;;;;;;1.73;0.88;;;;;;;;;;4118037;28;20058;-56
2022/03/01 11:15:18;;;;;;;0.93;0.82;;;;;;;;;;4109566;28;20584;-53
2022/03/01 11:17:37;;;;;;;2.05;1.00;;;;;;;;;;4118177;28;20140;-58
2022/03/01 11:20:14;;;;;;;1.25;0.90;;;;;;;;;;4104098;28;20062;-57
2022/03/01 11:22:24;;;;;;;1.77;1.13;;;;;;;;;;4094194;28;20126;-58
2022/03/01 11:24:26;;;;;;;1.42;1.10;;;;;;;;;;4102038;28;20153;-59
2022/03/01 11:26:36;;;;;;;1.30;0.75;;;;;;;;;;4098600;28;20139;-57
2022/03/01 11:28:40;;;;;;;1.25;1.08;;;;;;;;;;4124885;28;20106;-58
2022/03/01 11:30:44;;;;;;;1.40;1.05;;;;;;;;;;4128206;28;20093;-58
2022/03/01 11:32:46;;;;;;;0.98;0.77;;;;;;;;;;4121549;28;20158;-57
2022/03/01 11:34:47;;;;;;;1.42;0.95;;;;;;;;;;4111377;28;20101;-58
2022/03/01 11:36:49;;;;;;;1.25;0.68;;;;;;;;;;4129798;28;20065;-58
2022/03/01 11:38:51;;;;;;;1.02;0.80;;;;;;;;;;4125596;28;20565;-59
2022/03/01 11:40:52;;;;;;;1.35;0.80;;;;;;;;;;4121553;28;20077;-58
2022/03/01 11:42:53;;;;;;;1.23;0.90;;;;;;;;;;4129445;28;20050;-58
2022/03/01 11:44:55;;;;;;;1.67;0.90;;;;;;;;;;4129843;28;20058;-58
2022/03/01 11:46:56;;;;;;;1.10;0.77;;;;;;;;;;4130997;28;20065;-58
2022/03/01 11:48:57;;;;;;;1.75;0.73;;;;;;;;;;4119773;28;20116;-58
2022/03/01 11:51:04;;;;;;;2.25;0.80;;;;;;;;;;4118690;28;20431;-56
2022/03/01 11:53:07;;;;;;;1.20;1.05;;;;;;;;;;4108636;28;20062;-57
2022/03/01 11:55:09;;;;;;;1.23;0.80;;;;;;;;;;4124397;28;20592;-58
2022/03/01 11:57:11;;;;;;;1.20;0.90;;;;;;;;;;4109396;28;20105;-56
2022/03/01 11:59:13;;;;;;;1.13;1.00;;;;;;;;;;4111984;28;20481;-59
2022/03/01 12:01:14;;;;;;;1.45;1.00;;;;;;;;;;4126250;28;20054;-59
2022/03/01 12:03:17;;;;;;;0.85;0.82;;;;;;;;;;4104387;28;20093;-59
2022/03/01 12:05:25;;;;;;;1.10;0.80;;;;;;;;;;4118157;28;20399;-59
2022/03/01 12:07:30;;;;;;;2.13;1.10;;;;;;;;;;4115706;28;20096;-59
2022/03/01 12:09:35;;;;;;;1.25;0.80;;;;;;;;;;4129167;28;20105;-59
2022/03/01 12:11:39;;;;;;;1.10;0.98;;;;;;;;;;4110624;28;20062;-59